sensor_id;sensor_type;location;lat;lon;timestamp;P1;durP1;ratioP1;P2;durP2;ratioP2
69779;SDS011;57052;55.602;38.096;2022-09-21T00:00:37;12.38;;;6.00;;
69779;SDS011;57052;55.602;38.096;2022-09-21T00:03:03;15.70;;;6.63;;
69779;SDS011;57052;55.602;38.096;2022-09-21T00:05:29;15.85;;;6.90;;
69779;SDS011;57052;55.602;38.096;2022-09-21T00:07:55;13.95;;;6.30;;
69779;SDS011;57052;55.602;38.096;2022-09-21T00:10:24;14.13;;;6.15;;
69779;SDS011;57052;55.602;38.096;2022-09-21T00:12:51;15.15;;;6.13;;
69779;SDS011;57052;55.602;38.096;2022-09-21T00:15:16;13.20;;;6.30;;
69779;SDS011;57052;55.602;38.096;2022-09-21T00:17:43;12.40;;;6.72;;
69779;SDS011;57052;55.602;38.096;2022-09-21T00:20:09;13.38;;;6.28;;
69779;SDS011;57052;55.602;38.096;2022-09-21T00:22:35;15.27;;;6.85;;
69779;SDS011;57052;55.602;38.096;2022-09-21T00:25:02;11.88;;;6.38;;
69779;SDS011;57052;55.602;38.096;2022-09-21T00:27:30;16.52;;;6.50;;
69779;SDS011;57052;55.602;38.096;2022-09-21T00:29:56;14.98;;;6.30;;
69779;SDS011;57052;55.602;38.096;2022-09-21T00:32:22;15.25;;;6.53;;
69779;SDS011;57052;55.602;38.096;2022-09-21T00:34:52;15.18;;;6.28;;
69779;SDS011;57052;55.602;38.096;2022-09-21T00:37:18;16.60;;;6.18;;
69779;SDS011;57052;55.602;38.096;2022-09-21T00:39:44;18.17;;;6.47;;
69779;SDS011;57052;55.602;38.096;2022-09-21T00:42:16;15.93;;;6.78;;
69779;SDS011;57052;55.602;38.096;2022-09-21T00:44:44;17.50;;;6.72;;
69779;SDS011;57052;55.602;38.096;2022-09-21T00:47:11;15.40;;;6.57;;
69779;SDS011;57052;55.602;38.096;2022-09-21T00:49:40;16.13;;;7.15;;
69779;SDS011;57052;55.602;38.096;2022-09-21T00:52:07;16.30;;;7.55;;
69779;SDS011;57052;55.602;38.096;2022-09-21T00:54:40;14.55;;;6.60;;
69779;SDS011;57052;55.602;38.096;2022-09-21T00:57:11;14.77;;;6.97;;
69779;SDS011;57052;55.602;38.096;2022-09-21T00:59:38;15.52;;;6.90;;
69779;SDS011;57052;55.602;38.096;2022-09-21T01:02:07;13.85;;;6.55;;
69779;SDS011;57052;55.602;38.096;2022-09-21T01:04:33;13.57;;;7.13;;
69779;SDS011;57052;55.602;38.096;2022-09-21T01:07:00;16.05;;;6.70;;
69779;SDS011;57052;55.602;38.096;2022-09-21T01:09:30;17.60;;;7.75;;
69779;SDS011;57052;55.602;38.096;2022-09-21T01:31:54;18.90;;;7.25;;
69779;SDS011;57052;55.602;38.096;2022-09-21T01:37:40;16.38;;;7.00;;
69779;SDS011;57052;55.602;38.096;2022-09-21T01:40:16;18.08;;;7.78;;
69779;SDS011;57052;55.602;38.096;2022-09-21T01:42:46;15.43;;;7.53;;
69779;SDS011;57052;55.602;38.096;2022-09-21T01:45:14;16.50;;;7.35;;
69779;SDS011;57052;55.602;38.096;2022-09-21T01:47:42;15.95;;;7.32;;
69779;SDS011;57052;55.602;38.096;2022-09-21T01:50:12;14.02;;;6.90;;
69779;SDS011;57052;55.602;38.096;2022-09-21T01:52:41;15.50;;;7.20;;
69779;SDS011;57052;55.602;38.096;2022-09-21T01:55:24;17.88;;;7.03;;
69779;SDS011;57052;55.602;38.096;2022-09-21T02:00:24;13.40;;;6.78;;
69779;SDS011;57052;55.602;38.096;2022-09-21T02:02:52;16.52;;;7.07;;
69779;SDS011;57052;55.602;38.096;2022-09-21T02:05:22;16.05;;;6.70;;
69779;SDS011;57052;55.602;38.096;2022-09-21T02:07:50;17.35;;;7.50;;
69779;SDS011;57052;55.602;38.096;2022-09-21T02:10:21;19.77;;;8.10;;
69779;SDS011;57052;55.602;38.096;2022-09-21T02:12:52;17.88;;;7.97;;
69779;SDS011;57052;55.602;38.096;2022-09-21T02:15:26;14.13;;;7.50;;
69779;SDS011;57052;55.602;38.096;2022-09-21T02:18:06;17.92;;;7.22;;
69779;SDS011;57052;55.602;38.096;2022-09-21T02:20:40;14.30;;;6.45;;
69779;SDS011;57052;55.602;38.096;2022-09-21T02:23:19;17.50;;;7.20;;
69779;SDS011;57052;55.602;38.096;2022-09-21T02:36:48;16.67;;;7.15;;
69779;SDS011;57052;55.602;38.096;2022-09-21T02:39:15;14.18;;;6.78;;
69779;SDS011;57052;55.602;38.096;2022-09-21T02:42:06;14.57;;;7.25;;
69779;SDS011;57052;55.602;38.096;2022-09-21T02:47:09;14.63;;;6.78;;
69779;SDS011;57052;55.602;38.096;2022-09-21T02:49:41;14.90;;;7.43;;
69779;SDS011;57052;55.602;38.096;2022-09-21T02:52:12;16.27;;;7.43;;
69779;SDS011;57052;55.602;38.096;2022-09-21T02:54:40;13.68;;;6.18;;
69779;SDS011;57052;55.602;38.096;2022-09-21T02:57:12;11.65;;;7.10;;
69779;SDS011;57052;55.602;38.096;2022-09-21T02:59:40;17.02;;;7.63;;
69779;SDS011;57052;55.602;38.096;2022-09-21T03:02:08;13.85;;;7.05;;
69779;SDS011;57052;55.602;38.096;2022-09-21T03:04:34;16.75;;;7.13;;
69779;SDS011;57052;55.602;38.096;2022-09-21T03:07:01;15.80;;;7.07;;
69779;SDS011;57052;55.602;38.096;2022-09-21T03:09:26;16.05;;;7.47;;
69779;SDS011;57052;55.602;38.096;2022-09-21T03:11:52;16.58;;;7.90;;
69779;SDS011;57052;55.602;38.096;2022-09-21T03:14:18;13.18;;;7.10;;
69779;SDS011;57052;55.602;38.096;2022-09-21T03:16:43;11.63;;;6.85;;
69779;SDS011;57052;55.602;38.096;2022-09-21T03:19:09;12.23;;;7.22;;
69779;SDS011;57052;55.602;38.096;2022-09-21T03:21:36;14.30;;;7.10;;
69779;SDS011;57052;55.602;38.096;2022-09-21T03:24:02;18.92;;;7.25;;
69779;SDS011;57052;55.602;38.096;2022-09-21T03:26:28;16.67;;;7.47;;
69779;SDS011;57052;55.602;38.096;2022-09-21T03:28:54;15.07;;;6.72;;
69779;SDS011;57052;55.602;38.096;2022-09-21T03:31:20;16.58;;;7.13;;
69779;SDS011;57052;55.602;38.096;2022-09-21T03:33:46;12.75;;;7.03;;
69779;SDS011;57052;55.602;38.096;2022-09-21T03:36:12;13.27;;;6.97;;
69779;SDS011;57052;55.602;38.096;2022-09-21T03:38:38;12.90;;;7.07;;
69779;SDS011;57052;55.602;38.096;2022-09-21T03:41:04;16.13;;;7.03;;
69779;SDS011;57052;55.602;38.096;2022-09-21T03:43:30;15.50;;;6.90;;
69779;SDS011;57052;55.602;38.096;2022-09-21T03:45:56;16.38;;;6.80;;
69779;SDS011;57052;55.602;38.096;2022-09-21T03:48:22;14.85;;;7.22;;
69779;SDS011;57052;55.602;38.096;2022-09-21T03:50:48;15.55;;;7.20;;
69779;SDS011;57052;55.602;38.096;2022-09-21T03:53:14;16.05;;;6.90;;
69779;SDS011;57052;55.602;38.096;2022-09-21T03:55:40;12.98;;;7.22;;
69779;SDS011;57052;55.602;38.096;2022-09-21T03:58:06;16.67;;;7.43;;
69779;SDS011;57052;55.602;38.096;2022-09-21T04:00:32;16.50;;;7.07;;
69779;SDS011;57052;55.602;38.096;2022-09-21T04:02:58;16.90;;;7.53;;
69779;SDS011;57052;55.602;38.096;2022-09-21T04:05:24;16.70;;;7.50;;
69779;SDS011;57052;55.602;38.096;2022-09-21T04:07:50;15.15;;;7.10;;
69779;SDS011;57052;55.602;38.096;2022-09-21T04:10:16;12.18;;;6.93;;
69779;SDS011;57052;55.602;38.096;2022-09-21T04:12:44;14.65;;;6.55;;
69779;SDS011;57052;55.602;38.096;2022-09-21T04:15:14;17.23;;;7.00;;
69779;SDS011;57052;55.602;38.096;2022-09-21T04:17:43;14.55;;;6.38;;
69779;SDS011;57052;55.602;38.096;2022-09-21T04:20:08;15.65;;;7.05;;
69779;SDS011;57052;55.602;38.096;2022-09-21T04:22:34;14.07;;;6.47;;
69779;SDS011;57052;55.602;38.096;2022-09-21T04:25:04;13.77;;;6.90;;
69779;SDS011;57052;55.602;38.096;2022-09-21T04:27:30;15.10;;;6.60;;
69779;SDS011;57052;55.602;38.096;2022-09-21T04:29:57;13.38;;;6.63;;
69779;SDS011;57052;55.602;38.096;2022-09-21T04:32:23;16.55;;;7.47;;
69779;SDS011;57052;55.602;38.096;2022-09-21T04:34:48;13.48;;;7.50;;
69779;SDS011;57052;55.602;38.096;2022-09-21T04:37:14;19.20;;;7.00;;
69779;SDS011;57052;55.602;38.096;2022-09-21T04:39:40;17.25;;;7.43;;
69779;SDS011;57052;55.602;38.096;2022-09-21T04:42:06;18.52;;;7.10;;
69779;SDS011;57052;55.602;38.096;2022-09-21T04:44:31;14.55;;;7.10;;
69779;SDS011;57052;55.602;38.096;2022-09-21T04:46:57;12.85;;;6.90;;
69779;SDS011;57052;55.602;38.096;2022-09-21T04:49:23;13.55;;;6.72;;
69779;SDS011;57052;55.602;38.096;2022-09-21T04:51:48;16.40;;;7.38;;
69779;SDS011;57052;55.602;38.096;2022-09-21T04:54:14;14.25;;;6.95;;
69779;SDS011;57052;55.602;38.096;2022-09-21T04:56:40;15.65;;;6.93;;
69779;SDS011;57052;55.602;38.096;2022-09-21T04:59:06;15.00;;;7.85;;
69779;SDS011;57052;55.602;38.096;2022-09-21T05:01:31;19.67;;;7.47;;
69779;SDS011;57052;55.602;38.096;2022-09-21T05:03:57;13.68;;;7.05;;
69779;SDS011;57052;55.602;38.096;2022-09-21T05:06:29;15.45;;;7.15;;
69779;SDS011;57052;55.602;38.096;2022-09-21T05:08:56;19.77;;;8.25;;
69779;SDS011;57052;55.602;38.096;2022-09-21T05:11:41;13.35;;;6.93;;
69779;SDS011;57052;55.602;38.096;2022-09-21T05:14:06;14.43;;;6.70;;
69779;SDS011;57052;55.602;38.096;2022-09-21T05:16:32;14.98;;;7.47;;
69779;SDS011;57052;55.602;38.096;2022-09-21T05:18:58;19.52;;;8.25;;
69779;SDS011;57052;55.602;38.096;2022-09-21T05:21:24;16.58;;;7.80;;
69779;SDS011;57052;55.602;38.096;2022-09-21T05:23:50;19.05;;;7.75;;
69779;SDS011;57052;55.602;38.096;2022-09-21T05:26:16;14.27;;;7.60;;
69779;SDS011;57052;55.602;38.096;2022-09-21T05:28:42;17.00;;;7.38;;
69779;SDS011;57052;55.602;38.096;2022-09-21T05:37:04;17.92;;;7.80;;
69779;SDS011;57052;55.602;38.096;2022-09-21T05:39:31;14.73;;;7.50;;
69779;SDS011;57052;55.602;38.096;2022-09-21T05:41:57;16.13;;;7.15;;
69779;SDS011;57052;55.602;38.096;2022-09-21T05:44:23;16.05;;;7.28;;
69779;SDS011;57052;55.602;38.096;2022-09-21T05:50:32;13.02;;;6.57;;
69779;SDS011;57052;55.602;38.096;2022-09-21T05:53:29;15.55;;;7.05;;
69779;SDS011;57052;55.602;38.096;2022-09-21T05:56:02;14.85;;;6.82;;
69779;SDS011;57052;55.602;38.096;2022-09-21T06:04:37;14.23;;;6.82;;
69779;SDS011;57052;55.602;38.096;2022-09-21T06:07:03;12.20;;;6.90;;
69779;SDS011;57052;55.602;38.096;2022-09-21T06:09:29;16.05;;;7.55;;
69779;SDS011;57052;55.602;38.096;2022-09-21T06:11:54;14.90;;;6.70;;
69779;SDS011;57052;55.602;38.096;2022-09-21T06:14:20;13.10;;;7.20;;
69779;SDS011;57052;55.602;38.096;2022-09-21T06:16:49;12.23;;;7.03;;
69779;SDS011;57052;55.602;38.096;2022-09-21T06:19:15;13.82;;;7.13;;
69779;SDS011;57052;55.602;38.096;2022-09-21T06:21:41;14.65;;;7.30;;
69779;SDS011;57052;55.602;38.096;2022-09-21T06:24:07;14.05;;;6.78;;
69779;SDS011;57052;55.602;38.096;2022-09-21T06:26:34;11.45;;;7.07;;
69779;SDS011;57052;55.602;38.096;2022-09-21T06:28:59;13.52;;;6.53;;
69779;SDS011;57052;55.602;38.096;2022-09-21T06:31:25;14.35;;;7.50;;
69779;SDS011;57052;55.602;38.096;2022-09-21T06:33:52;14.95;;;7.55;;
69779;SDS011;57052;55.602;38.096;2022-09-21T06:36:18;11.65;;;6.95;;
69779;SDS011;57052;55.602;38.096;2022-09-21T06:38:43;17.15;;;7.22;;
69779;SDS011;57052;55.602;38.096;2022-09-21T06:41:09;14.75;;;6.82;;
69779;SDS011;57052;55.602;38.096;2022-09-21T06:43:34;18.80;;;7.97;;
69779;SDS011;57052;55.602;38.096;2022-09-21T06:46:00;13.68;;;7.50;;
69779;SDS011;57052;55.602;38.096;2022-09-21T06:48:27;14.75;;;7.95;;
69779;SDS011;57052;55.602;38.096;2022-09-21T06:50:59;13.38;;;7.82;;
69779;SDS011;57052;55.602;38.096;2022-09-21T06:53:26;13.98;;;7.57;;
69779;SDS011;57052;55.602;38.096;2022-09-21T06:55:58;13.32;;;6.80;;
69779;SDS011;57052;55.602;38.096;2022-09-21T06:58:25;14.07;;;7.82;;
69779;SDS011;57052;55.602;38.096;2022-09-21T07:00:51;14.43;;;8.07;;
69779;SDS011;57052;55.602;38.096;2022-09-21T07:03:17;16.98;;;8.15;;
69779;SDS011;57052;55.602;38.096;2022-09-21T07:05:43;17.95;;;7.75;;
69779;SDS011;57052;55.602;38.096;2022-09-21T07:08:10;15.73;;;7.85;;
69779;SDS011;57052;55.602;38.096;2022-09-21T07:10:36;13.45;;;7.53;;
69779;SDS011;57052;55.602;38.096;2022-09-21T07:13:02;15.75;;;7.50;;
69779;SDS011;57052;55.602;38.096;2022-09-21T07:15:29;15.80;;;7.70;;
69779;SDS011;57052;55.602;38.096;2022-09-21T07:17:57;13.73;;;7.32;;
69779;SDS011;57052;55.602;38.096;2022-09-21T07:20:23;14.98;;;7.63;;
69779;SDS011;57052;55.602;38.096;2022-09-21T07:22:49;14.85;;;7.03;;
69779;SDS011;57052;55.602;38.096;2022-09-21T07:25:14;14.65;;;7.65;;
69779;SDS011;57052;55.602;38.096;2022-09-21T07:27:40;14.13;;;7.25;;
69779;SDS011;57052;55.602;38.096;2022-09-21T07:30:06;14.45;;;7.38;;
69779;SDS011;57052;55.602;38.096;2022-09-21T07:32:32;15.55;;;6.90;;
69779;SDS011;57052;55.602;38.096;2022-09-21T07:34:58;16.95;;;7.18;;
69779;SDS011;57052;55.602;38.096;2022-09-21T07:37:24;12.23;;;7.00;;
69779;SDS011;57052;55.602;38.096;2022-09-21T07:39:51;11.48;;;6.68;;
69779;SDS011;57052;55.602;38.096;2022-09-21T07:42:18;12.73;;;6.72;;
69779;SDS011;57052;55.602;38.096;2022-09-21T07:44:47;11.90;;;6.63;;
69779;SDS011;57052;55.602;38.096;2022-09-21T07:47:13;11.77;;;6.20;;
69779;SDS011;57052;55.602;38.096;2022-09-21T07:49:39;9.77;;;4.60;;
69779;SDS011;57052;55.602;38.096;2022-09-21T07:52:05;8.32;;;4.43;;
69779;SDS011;57052;55.602;38.096;2022-09-21T07:54:33;7.80;;;4.30;;
69779;SDS011;57052;55.602;38.096;2022-09-21T07:56:59;8.02;;;3.63;;
69779;SDS011;57052;55.602;38.096;2022-09-21T07:59:43;5.55;;;3.10;;
69779;SDS011;57052;55.602;38.096;2022-09-21T08:02:10;5.15;;;3.22;;
69779;SDS011;57052;55.602;38.096;2022-09-21T08:04:36;5.22;;;2.85;;
69779;SDS011;57052;55.602;38.096;2022-09-21T08:07:01;7.60;;;3.33;;
69779;SDS011;57052;55.602;38.096;2022-09-21T08:09:33;8.77;;;3.30;;
69779;SDS011;57052;55.602;38.096;2022-09-21T08:11:59;5.38;;;3.10;;
69779;SDS011;57052;55.602;38.096;2022-09-21T08:14:25;7.15;;;3.20;;
69779;SDS011;57052;55.602;38.096;2022-09-21T08:16:51;6.65;;;3.40;;
69779;SDS011;57052;55.602;38.096;2022-09-21T08:19:16;7.50;;;3.38;;
69779;SDS011;57052;55.602;38.096;2022-09-21T08:21:42;5.72;;;3.42;;
69779;SDS011;57052;55.602;38.096;2022-09-21T08:24:08;7.57;;;3.20;;
69779;SDS011;57052;55.602;38.096;2022-09-21T08:26:34;6.93;;;3.00;;
69779;SDS011;57052;55.602;38.096;2022-09-21T08:29:00;6.15;;;3.15;;
69779;SDS011;57052;55.602;38.096;2022-09-21T08:31:26;6.32;;;3.00;;
69779;SDS011;57052;55.602;38.096;2022-09-21T08:33:53;6.55;;;3.20;;
69779;SDS011;57052;55.602;38.096;2022-09-21T08:36:19;5.22;;;3.05;;
69779;SDS011;57052;55.602;38.096;2022-09-21T08:38:45;5.45;;;2.97;;
69779;SDS011;57052;55.602;38.096;2022-09-21T08:41:45;8.52;;;3.05;;
69779;SDS011;57052;55.602;38.096;2022-09-21T08:44:31;5.93;;;2.83;;
69779;SDS011;57052;55.602;38.096;2022-09-21T08:47:35;7.05;;;2.97;;
69779;SDS011;57052;55.602;38.096;2022-09-21T08:50:00;5.57;;;2.90;;
69779;SDS011;57052;55.602;38.096;2022-09-21T08:52:38;4.50;;;2.30;;
69779;SDS011;57052;55.602;38.096;2022-09-21T08:55:15;4.82;;;2.55;;
69779;SDS011;57052;55.602;38.096;2022-09-21T08:57:43;4.82;;;2.63;;
69779;SDS011;57052;55.602;38.096;2022-09-21T09:00:12;6.03;;;2.80;;
69779;SDS011;57052;55.602;38.096;2022-09-21T09:02:58;5.90;;;2.60;;
69779;SDS011;57052;55.602;38.096;2022-09-21T09:05:37;5.18;;;2.90;;
69779;SDS011;57052;55.602;38.096;2022-09-21T09:11:29;4.70;;;2.70;;
69779;SDS011;57052;55.602;38.096;2022-09-21T09:19:47;7.43;;;2.70;;
69779;SDS011;57052;55.602;38.096;2022-09-21T09:22:16;5.88;;;2.75;;
69779;SDS011;57052;55.602;38.096;2022-09-21T09:24:51;5.13;;;2.35;;
69779;SDS011;57052;55.602;38.096;2022-09-21T09:27:33;6.15;;;2.70;;
69779;SDS011;57052;55.602;38.096;2022-09-21T09:35:35;7.00;;;2.90;;
69779;SDS011;57052;55.602;38.096;2022-09-21T09:38:23;5.60;;;2.80;;
69779;SDS011;57052;55.602;38.096;2022-09-21T09:46:19;4.40;;;2.30;;
69779;SDS011;57052;55.602;38.096;2022-09-21T09:49:02;5.50;;;3.10;;
69779;SDS011;57052;55.602;38.096;2022-09-21T09:51:29;6.97;;;2.75;;
69779;SDS011;57052;55.602;38.096;2022-09-21T09:53:58;5.70;;;3.00;;
69779;SDS011;57052;55.602;38.096;2022-09-21T09:56:25;6.55;;;2.70;;
69779;SDS011;57052;55.602;38.096;2022-09-21T09:58:53;6.25;;;3.33;;
69779;SDS011;57052;55.602;38.096;2022-09-21T10:01:35;6.15;;;3.08;;
69779;SDS011;57052;55.602;38.096;2022-09-21T10:04:07;5.32;;;2.90;;
69779;SDS011;57052;55.602;38.096;2022-09-21T10:06:34;5.40;;;2.80;;
69779;SDS011;57052;55.602;38.096;2022-09-21T10:09:00;4.07;;;2.40;;
69779;SDS011;57052;55.602;38.096;2022-09-21T10:11:43;5.85;;;2.60;;
69779;SDS011;57052;55.602;38.096;2022-09-21T10:14:09;4.75;;;2.95;;
69779;SDS011;57052;55.602;38.096;2022-09-21T10:16:41;5.95;;;3.55;;
69779;SDS011;57052;55.602;38.096;2022-09-21T10:19:15;7.50;;;3.30;;
69779;SDS011;57052;55.602;38.096;2022-09-21T10:21:44;7.72;;;3.20;;
69779;SDS011;57052;55.602;38.096;2022-09-21T10:24:21;5.68;;;2.78;;
69779;SDS011;57052;55.602;38.096;2022-09-21T10:26:51;6.18;;;3.05;;
69779;SDS011;57052;55.602;38.096;2022-09-21T10:31:55;7.45;;;3.05;;
69779;SDS011;57052;55.602;38.096;2022-09-21T10:34:21;6.55;;;2.90;;
69779;SDS011;57052;55.602;38.096;2022-09-21T10:36:49;9.32;;;3.22;;
69779;SDS011;57052;55.602;38.096;2022-09-21T10:39:29;4.53;;;2.50;;
69779;SDS011;57052;55.602;38.096;2022-09-21T10:44:43;4.18;;;2.65;;
69779;SDS011;57052;55.602;38.096;2022-09-21T10:47:38;4.03;;;2.58;;
69779;SDS011;57052;55.602;38.096;2022-09-21T10:50:19;5.90;;;2.65;;
69779;SDS011;57052;55.602;38.096;2022-09-21T10:52:46;4.50;;;2.50;;
69779;SDS011;57052;55.602;38.096;2022-09-21T10:55:17;6.18;;;2.60;;
69779;SDS011;57052;55.602;38.096;2022-09-21T10:57:46;5.25;;;2.75;;
69779;SDS011;57052;55.602;38.096;2022-09-21T11:02:48;5.82;;;2.65;;
69779;SDS011;57052;55.602;38.096;2022-09-21T11:05:36;5.32;;;2.60;;
69779;SDS011;57052;55.602;38.096;2022-09-21T11:08:13;5.03;;;2.63;;
69779;SDS011;57052;55.602;38.096;2022-09-21T11:18:51;6.13;;;2.80;;
69779;SDS011;57052;55.602;38.096;2022-09-21T11:26:43;8.48;;;2.80;;
69779;SDS011;57052;55.602;38.096;2022-09-21T11:34:40;10.60;;;2.70;;
69779;SDS011;57052;55.602;38.096;2022-09-21T11:37:22;5.50;;;2.30;;
69779;SDS011;57052;55.602;38.096;2022-09-21T11:40:10;4.20;;;2.28;;
69779;SDS011;57052;55.602;38.096;2022-09-21T12:26:16;4.45;;;1.70;;
69779;SDS011;57052;55.602;38.096;2022-09-21T12:28:50;7.30;;;2.65;;
69779;SDS011;57052;55.602;38.096;2022-09-21T12:31:22;5.13;;;2.38;;
69779;SDS011;57052;55.602;38.096;2022-09-21T12:33:55;5.18;;;2.80;;
69779;SDS011;57052;55.602;38.096;2022-09-21T12:36:28;5.65;;;2.90;;
69779;SDS011;57052;55.602;38.096;2022-09-21T12:39:12;7.03;;;2.60;;
69779;SDS011;57052;55.602;38.096;2022-09-21T12:41:55;5.55;;;2.70;;
69779;SDS011;57052;55.602;38.096;2022-09-21T12:44:38;4.40;;;2.45;;
69779;SDS011;57052;55.602;38.096;2022-09-21T12:47:19;4.05;;;2.30;;
69779;SDS011;57052;55.602;38.096;2022-09-21T12:49:53;4.97;;;2.15;;
69779;SDS011;57052;55.602;38.096;2022-09-21T12:52:24;4.75;;;2.60;;
69779;SDS011;57052;55.602;38.096;2022-09-21T12:57:28;5.88;;;2.25;;
69779;SDS011;57052;55.602;38.096;2022-09-21T13:00:03;4.68;;;2.20;;
69779;SDS011;57052;55.602;38.096;2022-09-21T13:05:48;6.72;;;2.47;;
69779;SDS011;57052;55.602;38.096;2022-09-21T13:08:18;4.35;;;2.33;;
69779;SDS011;57052;55.602;38.096;2022-09-21T13:11:01;6.88;;;2.70;;
69779;SDS011;57052;55.602;38.096;2022-09-21T13:13:31;4.55;;;2.40;;
69779;SDS011;57052;55.602;38.096;2022-09-21T13:16:01;5.22;;;2.30;;
69779;SDS011;57052;55.602;38.096;2022-09-21T13:18:36;7.10;;;2.42;;
69779;SDS011;57052;55.602;38.096;2022-09-21T13:21:13;4.30;;;2.20;;
69779;SDS011;57052;55.602;38.096;2022-09-21T13:27:11;4.05;;;2.03;;
69779;SDS011;57052;55.602;38.096;2022-09-21T13:29:29;3.97;;;2.20;;
69779;SDS011;57052;55.602;38.096;2022-09-21T13:31:58;5.13;;;2.67;;
69779;SDS011;57052;55.602;38.096;2022-09-21T13:34:39;5.45;;;2.22;;
69779;SDS011;57052;55.602;38.096;2022-09-21T13:39:35;7.15;;;2.95;;
69779;SDS011;57052;55.602;38.096;2022-09-21T13:44:55;7.18;;;3.47;;
69779;SDS011;57052;55.602;38.096;2022-09-21T13:47:43;8.98;;;4.10;;
69779;SDS011;57052;55.602;38.096;2022-09-21T13:50:12;7.40;;;3.60;;
69779;SDS011;57052;55.602;38.096;2022-09-21T13:52:55;10.25;;;3.92;;
69779;SDS011;57052;55.602;38.096;2022-09-21T13:58:19;8.07;;;3.40;;
69779;SDS011;57052;55.602;38.096;2022-09-21T14:00:53;8.88;;;2.83;;
69779;SDS011;57052;55.602;38.096;2022-09-21T14:03:26;6.85;;;2.97;;
69779;SDS011;57052;55.602;38.096;2022-09-21T14:06:04;6.70;;;2.92;;
69779;SDS011;57052;55.602;38.096;2022-09-21T14:08:37;6.95;;;3.20;;
69779;SDS011;57052;55.602;38.096;2022-09-21T14:11:14;7.30;;;2.70;;
69779;SDS011;57052;55.602;38.096;2022-09-21T14:19:02;4.80;;;2.65;;
69779;SDS011;57052;55.602;38.096;2022-09-21T14:29:56;6.50;;;3.30;;
69779;SDS011;57052;55.602;38.096;2022-09-21T14:32:32;5.95;;;2.97;;
69779;SDS011;57052;55.602;38.096;2022-09-21T14:35:14;8.48;;;3.80;;
69779;SDS011;57052;55.602;38.096;2022-09-21T14:37:47;7.55;;;3.92;;
69779;SDS011;57052;55.602;38.096;2022-09-21T14:40:23;10.18;;;3.78;;
69779;SDS011;57052;55.602;38.096;2022-09-21T14:42:53;10.32;;;3.95;;
69779;SDS011;57052;55.602;38.096;2022-09-21T14:45:40;6.90;;;3.72;;
69779;SDS011;57052;55.602;38.096;2022-09-21T14:55:07;7.47;;;3.55;;
69779;SDS011;57052;55.602;38.096;2022-09-21T15:00:38;7.22;;;3.30;;
69779;SDS011;57052;55.602;38.096;2022-09-21T15:06:13;15.45;;;6.80;;
69779;SDS011;57052;55.602;38.096;2022-09-21T15:12:24;22.27;;;9.25;;
69779;SDS011;57052;55.602;38.096;2022-09-21T15:18:24;22.67;;;9.20;;
69779;SDS011;57052;55.602;38.096;2022-09-21T15:20:53;20.33;;;9.45;;
69779;SDS011;57052;55.602;38.096;2022-09-21T15:23:36;20.00;;;8.95;;
69779;SDS011;57052;55.602;38.096;2022-09-21T15:26:09;16.52;;;8.13;;
69779;SDS011;57052;55.602;38.096;2022-09-21T15:28:46;17.52;;;8.52;;
69779;SDS011;57052;55.602;38.096;2022-09-21T15:31:17;18.10;;;8.52;;
69779;SDS011;57052;55.602;38.096;2022-09-21T15:33:43;20.00;;;8.38;;
69779;SDS011;57052;55.602;38.096;2022-09-21T15:36:18;18.55;;;8.05;;
69779;SDS011;57052;55.602;38.096;2022-09-21T15:38:49;16.90;;;7.53;;
69779;SDS011;57052;55.602;38.096;2022-09-21T15:41:35;18.67;;;8.23;;
69779;SDS011;57052;55.602;38.096;2022-09-21T15:46:56;13.57;;;6.93;;
69779;SDS011;57052;55.602;38.096;2022-09-21T15:49:25;13.55;;;6.60;;
69779;SDS011;57052;55.602;38.096;2022-09-21T15:54:43;12.82;;;6.35;;
69779;SDS011;57052;55.602;38.096;2022-09-21T15:57:35;12.60;;;6.20;;
69779;SDS011;57052;55.602;38.096;2022-09-21T16:02:39;12.77;;;5.97;;
69779;SDS011;57052;55.602;38.096;2022-09-21T16:05:13;12.70;;;6.13;;
69779;SDS011;57052;55.602;38.096;2022-09-21T16:07:40;12.40;;;6.38;;
69779;SDS011;57052;55.602;38.096;2022-09-21T16:13:20;13.95;;;4.90;;
69779;SDS011;57052;55.602;38.096;2022-09-21T16:18:55;4.30;;;2.50;;
69779;SDS011;57052;55.602;38.096;2022-09-21T16:21:34;5.93;;;2.40;;
69779;SDS011;57052;55.602;38.096;2022-09-21T16:24:10;5.82;;;2.05;;
69779;SDS011;57052;55.602;38.096;2022-09-21T16:26:48;5.88;;;2.47;;
69779;SDS011;57052;55.602;38.096;2022-09-21T16:29:38;4.47;;;1.90;;
69779;SDS011;57052;55.602;38.096;2022-09-21T16:35:42;3.38;;;1.40;;
69779;SDS011;57052;55.602;38.096;2022-09-21T16:37:43;2.60;;;1.17;;
69779;SDS011;57052;55.602;38.096;2022-09-21T16:40:09;3.70;;;1.77;;
69779;SDS011;57052;55.602;38.096;2022-09-21T16:42:36;3.70;;;1.60;;
69779;SDS011;57052;55.602;38.096;2022-09-21T16:45:06;3.95;;;2.00;;
69779;SDS011;57052;55.602;38.096;2022-09-21T16:47:41;5.55;;;2.58;;
69779;SDS011;57052;55.602;38.096;2022-09-21T16:50:10;4.28;;;1.98;;
69779;SDS011;57052;55.602;38.096;2022-09-21T16:52:41;3.13;;;1.60;;
69779;SDS011;57052;55.602;38.096;2022-09-21T16:55:09;2.50;;;1.55;;
69779;SDS011;57052;55.602;38.096;2022-09-21T16:57:36;2.80;;;1.58;;
69779;SDS011;57052;55.602;38.096;2022-09-21T17:00:04;2.80;;;1.63;;
69779;SDS011;57052;55.602;38.096;2022-09-21T17:02:34;4.03;;;1.60;;
69779;SDS011;57052;55.602;38.096;2022-09-21T17:05:00;4.90;;;1.90;;
69779;SDS011;57052;55.602;38.096;2022-09-21T17:07:26;2.95;;;1.70;;
69779;SDS011;57052;55.602;38.096;2022-09-21T17:09:52;4.05;;;2.15;;
69779;SDS011;57052;55.602;38.096;2022-09-21T17:12:18;5.20;;;2.50;;
69779;SDS011;57052;55.602;38.096;2022-09-21T17:14:44;5.93;;;3.10;;
69779;SDS011;57052;55.602;38.096;2022-09-21T17:19:36;6.50;;;3.10;;
69779;SDS011;57052;55.602;38.096;2022-09-21T17:22:02;5.05;;;3.05;;
69779;SDS011;57052;55.602;38.096;2022-09-21T17:24:29;5.88;;;2.92;;
69779;SDS011;57052;55.602;38.096;2022-09-21T17:26:57;7.38;;;3.00;;
69779;SDS011;57052;55.602;38.096;2022-09-21T17:29:24;8.20;;;3.28;;
69779;SDS011;57052;55.602;38.096;2022-09-21T17:31:55;6.95;;;2.70;;
69779;SDS011;57052;55.602;38.096;2022-09-21T17:34:25;7.40;;;3.00;;
69779;SDS011;57052;55.602;38.096;2022-09-21T17:36:53;6.95;;;3.20;;
69779;SDS011;57052;55.602;38.096;2022-09-21T17:39:20;8.02;;;3.53;;
69779;SDS011;57052;55.602;38.096;2022-09-21T17:47:25;5.47;;;3.03;;
69779;SDS011;57052;55.602;38.096;2022-09-21T17:49:54;6.05;;;3.10;;
69779;SDS011;57052;55.602;38.096;2022-09-21T17:52:23;6.88;;;3.75;;
69779;SDS011;57052;55.602;38.096;2022-09-21T17:55:09;9.27;;;4.00;;
69779;SDS011;57052;55.602;38.096;2022-09-21T17:57:39;7.53;;;3.97;;
69779;SDS011;57052;55.602;38.096;2022-09-21T18:03:22;9.73;;;4.28;;
69779;SDS011;57052;55.602;38.096;2022-09-21T18:05:50;10.60;;;4.47;;
69779;SDS011;57052;55.602;38.096;2022-09-21T18:08:28;10.80;;;4.45;;
69779;SDS011;57052;55.602;38.096;2022-09-21T18:21:45;11.75;;;5.85;;
69779;SDS011;57052;55.602;38.096;2022-09-21T18:24:26;12.73;;;5.93;;
69779;SDS011;57052;55.602;38.096;2022-09-21T18:26:57;12.85;;;5.95;;
69779;SDS011;57052;55.602;38.096;2022-09-21T18:32:08;12.23;;;5.80;;
69779;SDS011;57052;55.602;38.096;2022-09-21T18:40:50;11.00;;;5.15;;
69779;SDS011;57052;55.602;38.096;2022-09-21T18:46:04;11.60;;;6.30;;
69779;SDS011;57052;55.602;38.096;2022-09-21T18:54:18;10.43;;;5.13;;
69779;SDS011;57052;55.602;38.096;2022-09-21T18:56:49;9.30;;;4.63;;